createdAt,value
2022-07-30T00:01:52.430Z,2.80
2022-07-30T00:04:19.895Z,3.17
2022-07-30T00:06:46.573Z,3.58
2022-07-30T00:09:13.186Z,3.00
2022-07-30T00:11:39.781Z,3.55
2022-07-30T00:14:06.381Z,3.40
2022-07-30T00:16:33.456Z,3.42
2022-07-30T00:19:00.094Z,3.85
2022-07-30T00:21:38.659Z,3.25
2022-07-30T00:24:08.384Z,3.30
2022-07-30T00:26:35.078Z,4.35
2022-07-30T00:29:01.797Z,3.67
2022-07-30T00:31:28.703Z,2.78
2022-07-30T00:33:55.422Z,3.67
2022-07-30T00:36:22.486Z,3.67
2022-07-30T00:38:49.345Z,2.75
2022-07-30T00:41:16.177Z,4.13
2022-07-30T00:43:44.450Z,3.10
2022-07-30T00:46:12.079Z,2.80
2022-07-30T00:48:38.839Z,3.20
2022-07-30T00:51:05.723Z,3.15
2022-07-30T00:53:33.755Z,3.35
2022-07-30T00:56:00.932Z,3.30
2022-07-30T00:58:28.221Z,3.22
2022-07-30T01:00:54.913Z,3.53
2022-07-30T01:03:21.850Z,3.50
2022-07-30T01:05:48.763Z,3.30
2022-07-30T01:08:15.465Z,2.60
2022-07-30T01:10:42.048Z,2.85
2022-07-30T01:13:09.574Z,3.05
2022-07-30T01:15:38.364Z,3.20
2022-07-30T01:18:08.051Z,3.17
2022-07-30T01:20:48.546Z,3.08
2022-07-30T01:23:26.826Z,3.38
2022-07-30T01:26:02.277Z,2.97
2022-07-30T01:28:33.660Z,2.60
2022-07-30T01:31:01.859Z,3.17
2022-07-30T01:33:31.148Z,2.83
2022-07-30T01:36:01.508Z,3.08
2022-07-30T01:38:31.161Z,3.33
2022-07-30T01:41:03.723Z,3.15
2022-07-30T01:43:32.872Z,3.38
2022-07-30T01:46:01.674Z,3.33
2022-07-30T01:48:30.158Z,3.45
2022-07-30T01:51:00.599Z,3.20
2022-07-30T01:53:31.345Z,3.30
2022-07-30T01:56:00.066Z,3.50
2022-07-30T01:58:31.260Z,2.78
2022-07-30T02:01:05.829Z,3.00
2022-07-30T02:03:33.951Z,3.30
2022-07-30T02:06:10.916Z,2.97
2022-07-30T02:08:44.281Z,2.67
2022-07-30T02:11:15.189Z,3.17
2022-07-30T02:13:52.761Z,3.03
2022-07-30T02:16:29.599Z,3.35
2022-07-30T02:19:06.512Z,2.83
2022-07-30T02:21:50.709Z,3.33
2022-07-30T02:24:22.956Z,2.45
2022-07-30T02:26:55.123Z,2.55
2022-07-30T02:29:23.640Z,3.45
2022-07-30T02:31:52.295Z,3.25
2022-07-30T02:34:22.781Z,4.22
2022-07-30T02:36:50.664Z,3.92
2022-07-30T02:39:20.715Z,3.88
2022-07-30T02:41:50.105Z,4.13
2022-07-30T02:44:20.170Z,4.00
2022-07-30T02:46:49.410Z,3.90
2022-07-30T02:49:36.930Z,3.65
2022-07-30T02:52:08.836Z,3.58
2022-07-30T02:54:38.243Z,4.57
2022-07-30T02:57:07.082Z,4.22
2022-07-30T02:59:36.822Z,4.20
2022-07-30T03:02:04.669Z,4.30
2022-07-30T03:04:33.057Z,3.55
2022-07-30T03:07:04.890Z,4.35
2022-07-30T03:09:51.976Z,5.00
2022-07-30T03:12:19.735Z,4.25
2022-07-30T03:14:46.470Z,4.57
2022-07-30T03:17:15.751Z,4.25
2022-07-30T03:19:45.450Z,4.68
2022-07-30T03:22:14.847Z,4.75
2022-07-30T03:24:44.159Z,4.10
2022-07-30T03:27:13.706Z,3.90
2022-07-30T03:29:41.942Z,4.00
2022-07-30T03:32:09.186Z,4.57
2022-07-30T03:34:41.761Z,5.35
2022-07-30T03:37:09.392Z,4.63
2022-07-30T03:39:37.660Z,4.22
2022-07-30T03:42:07.886Z,4.60
2022-07-30T03:44:35.980Z,4.88
2022-07-30T03:47:06.356Z,4.22
2022-07-30T03:49:39.360Z,4.55
2022-07-30T03:52:06.714Z,4.18
2022-07-30T03:54:35.113Z,5.13
2022-07-30T03:57:20.334Z,4.03
2022-07-30T03:59:48.460Z,4.65
2022-07-30T04:02:15.147Z,5.07
2022-07-30T04:05:00.556Z,4.70
2022-07-30T04:07:27.149Z,4.45
2022-07-30T04:09:53.822Z,4.47
2022-07-30T04:12:30.395Z,4.75
2022-07-30T04:14:57.962Z,5.25
2022-07-30T04:17:31.827Z,4.95
2022-07-30T04:20:16.483Z,4.72
2022-07-30T04:22:45.406Z,4.95
2022-07-30T04:25:24.280Z,4.43
2022-07-30T04:28:03.136Z,4.80
2022-07-30T04:30:31.326Z,4.75
2022-07-30T04:32:58.255Z,5.15
2022-07-30T04:35:51.256Z,4.75
2022-07-30T04:38:36.408Z,5.03
2022-07-30T04:41:03.140Z,4.85
2022-07-30T04:43:38.902Z,5.22
2022-07-30T04:46:05.583Z,5.90
2022-07-30T04:48:32.480Z,6.05
2022-07-30T04:51:17.412Z,7.03
2022-07-30T04:53:45.801Z,6.07
2022-07-30T04:56:14.996Z,6.05
2022-07-30T04:58:43.607Z,6.07
2022-07-30T05:01:12.397Z,6.00
2022-07-30T05:03:46.095Z,5.82
2022-07-30T05:06:14.857Z,6.45
2022-07-30T05:08:41.699Z,5.90
2022-07-30T05:11:13.084Z,7.68
2022-07-30T05:13:46.177Z,6.63
2022-07-30T05:16:14.499Z,6.32
2022-07-30T05:18:41.293Z,6.55
2022-07-30T05:21:08.115Z,6.25
2022-07-30T05:23:37.253Z,6.90
2022-07-30T05:26:11.239Z,6.07
2022-07-30T05:28:44.272Z,6.35
2022-07-30T05:31:15.702Z,5.88
2022-07-30T05:33:48.275Z,5.57
2022-07-30T05:36:17.630Z,5.90
2022-07-30T05:38:44.324Z,6.10
2022-07-30T05:41:34.226Z,5.13
2022-07-30T05:44:05.274Z,6.60
2022-07-30T05:46:32.555Z,6.20
2022-07-30T05:48:59.673Z,6.32
2022-07-30T05:51:27.765Z,5.80
2022-07-30T05:53:54.412Z,6.40
2022-07-30T05:56:29.970Z,5.97
2022-07-30T05:59:04.757Z,6.95
2022-07-30T06:02:01.795Z,6.20
2022-07-30T06:04:35.445Z,6.47
2022-07-30T06:07:04.677Z,7.00
2022-07-30T06:09:36.489Z,6.72
2022-07-30T06:12:05.209Z,6.20
2022-07-30T06:14:32.203Z,6.75
2022-07-30T06:16:59.190Z,6.57
2022-07-30T06:19:30.007Z,6.80
2022-07-30T06:22:05.831Z,6.85
2022-07-30T06:24:35.548Z,6.38
2022-07-30T06:27:15.259Z,6.25
2022-07-30T06:29:41.917Z,6.07
2022-07-30T06:32:09.228Z,6.90
2022-07-30T06:34:35.937Z,6.30
2022-07-30T06:37:03.216Z,7.07
2022-07-30T06:39:56.059Z,8.02
2022-07-30T06:42:20.381Z,6.95
2022-07-30T06:45:06.068Z,6.78
2022-07-30T06:50:20.167Z,6.75
2022-07-30T06:52:47.238Z,7.80
2022-07-30T06:55:14.026Z,7.20
2022-07-30T06:57:51.338Z,7.30
2022-07-30T07:00:37.922Z,7.85
2022-07-30T07:03:11.810Z,7.72
2022-07-30T07:05:38.826Z,7.90
2022-07-30T07:08:05.534Z,7.40
2022-07-30T07:10:37.538Z,7.38
2022-07-30T07:13:15.800Z,7.45
2022-07-30T07:15:42.853Z,8.38
2022-07-30T07:18:15.238Z,7.97
2022-07-30T07:20:47.876Z,9.38
2022-07-30T07:23:14.562Z,7.35
2022-07-30T07:25:42.205Z,8.35
2022-07-30T07:28:12.842Z,7.70
2022-07-30T07:30:44.074Z,8.25
2022-07-30T07:33:12.154Z,7.75
2022-07-30T07:35:41.093Z,7.60
2022-07-30T07:38:22.755Z,7.07
2022-07-30T07:40:50.556Z,7.10
2022-07-30T07:43:17.452Z,6.95
2022-07-30T07:45:45.580Z,7.32
2022-07-30T07:48:12.882Z,6.63
2022-07-30T07:50:55.003Z,6.25
2022-07-30T07:53:27.434Z,5.80
2022-07-30T07:55:54.319Z,6.63
2022-07-30T07:58:26.565Z,6.55
2022-07-30T08:00:56.963Z,6.45
2022-07-30T08:03:36.535Z,6.25
2022-07-30T08:06:16.298Z,6.03
2022-07-30T08:11:47.863Z,6.68
2022-07-30T08:17:31.774Z,7.63
2022-07-30T08:20:09.339Z,7.22
2022-07-30T08:22:36.896Z,7.10
2022-07-30T08:25:04.981Z,7.38
2022-07-30T08:27:31.976Z,7.10
2022-07-30T08:30:08.217Z,6.78
2022-07-30T08:32:35.882Z,6.30
2022-07-30T08:35:05.767Z,5.93
2022-07-30T08:37:34.097Z,6.63
2022-07-30T08:40:02.257Z,7.07
2022-07-30T08:42:31.010Z,6.32
2022-07-30T08:44:57.819Z,6.43
2022-07-30T08:47:30.968Z,5.60
2022-07-30T08:50:10.019Z,5.77
2022-07-30T08:52:48.966Z,6.32
2022-07-30T08:55:16.306Z,6.22
2022-07-30T08:57:44.602Z,5.95
2022-07-30T09:00:12.108Z,5.88
2022-07-30T09:02:38.780Z,5.40
2022-07-30T09:05:07.536Z,5.28
2022-07-30T09:07:35.510Z,5.00
2022-07-30T09:10:08.290Z,5.80
2022-07-30T09:12:43.868Z,6.05
2022-07-30T09:15:13.016Z,5.35
2022-07-30T09:17:50.433Z,5.25
2022-07-30T09:20:18.460Z,5.88
2022-07-30T09:23:05.984Z,5.43
2022-07-30T09:25:52.961Z,5.60
2022-07-30T09:28:37.939Z,5.78
2022-07-30T09:31:14.315Z,5.40
2022-07-30T09:36:44.743Z,6.80
2022-07-30T09:39:32.611Z,6.18
2022-07-30T09:42:27.190Z,5.53
2022-07-30T09:45:14.363Z,5.22
2022-07-30T09:47:48.134Z,4.85
2022-07-30T09:50:29.316Z,4.72
2022-07-30T09:53:09.723Z,5.00
2022-07-30T09:58:45.474Z,4.35
2022-07-30T10:01:13.592Z,4.05
2022-07-30T10:03:52.821Z,3.97
2022-07-30T10:06:41.977Z,3.72
2022-07-30T10:09:37.147Z,3.20
2022-07-30T10:12:10.638Z,2.88
2022-07-30T10:14:43.947Z,3.45
2022-07-30T10:17:14.722Z,3.55
2022-07-30T10:19:47.185Z,3.55
2022-07-30T10:22:51.006Z,3.92
2022-07-30T10:25:27.987Z,3.47
2022-07-30T10:28:10.357Z,3.20
2022-07-30T10:30:38.298Z,3.38
2022-07-30T10:33:07.779Z,3.47
2022-07-30T10:35:38.385Z,2.92
2022-07-30T10:38:13.962Z,2.33
2022-07-30T10:40:50.207Z,3.20
2022-07-30T10:43:44.678Z,3.42
2022-07-30T10:46:29.471Z,4.07
2022-07-30T10:49:12.565Z,3.08
2022-07-30T10:51:47.865Z,3.33
2022-07-30T10:54:39.276Z,2.95
2022-07-30T10:57:31.741Z,2.85
2022-07-30T11:00:00.479Z,2.95
2022-07-30T11:02:30.506Z,3.13
2022-07-30T11:05:17.192Z,2.40
2022-07-30T11:07:47.431Z,2.33
2022-07-30T11:10:40.181Z,2.50
2022-07-30T11:13:08.009Z,2.88
2022-07-30T11:15:52.129Z,2.85
2022-07-30T11:18:18.962Z,2.25
2022-07-30T11:21:20.676Z,2.05
2022-07-30T11:23:53.356Z,2.00
2022-07-30T11:26:41.612Z,1.50
2022-07-30T11:29:34.131Z,1.65
2022-07-30T11:32:26.756Z,2.00
2022-07-30T11:35:14.608Z,2.05
2022-07-30T11:38:01.976Z,2.00
2022-07-30T11:40:42.332Z,2.05
2022-07-30T11:43:14.963Z,2.10
2022-07-30T11:45:42.539Z,1.52
2022-07-30T11:48:12.177Z,1.95
2022-07-30T11:50:39.632Z,1.30
2022-07-30T11:53:09.480Z,1.08
2022-07-30T11:55:44.980Z,1.20
2022-07-30T11:58:35.309Z,1.50
2022-07-30T12:01:03.566Z,1.20
2022-07-30T12:03:41.238Z,1.15
2022-07-30T12:06:10.111Z,1.30
2022-07-30T12:08:44.349Z,1.00
2022-07-30T12:11:11.700Z,1.10
2022-07-30T12:13:45.122Z,1.23
2022-07-30T12:16:18.688Z,1.23
2022-07-30T12:18:47.301Z,1.00
2022-07-30T12:21:17.473Z,1.42
2022-07-30T12:23:58.059Z,1.42
2022-07-30T12:26:30.477Z,1.40
2022-07-30T12:29:11.548Z,1.58
2022-07-30T12:31:40.235Z,0.98
2022-07-30T12:34:20.330Z,1.70
2022-07-30T12:36:47.032Z,1.08
2022-07-30T12:39:26.162Z,0.93
2022-07-30T12:41:56.031Z,1.20
2022-07-30T12:44:44.878Z,1.20
2022-07-30T12:47:26.228Z,1.30
2022-07-30T12:49:54.447Z,1.10
2022-07-30T12:52:30.822Z,1.00
2022-07-30T12:54:58.987Z,1.17
2022-07-30T12:57:25.735Z,0.98
2022-07-30T13:00:07.839Z,1.38
2022-07-30T13:02:36.114Z,1.00
2022-07-30T13:05:11.503Z,1.23
2022-07-30T13:07:54.752Z,1.17
2022-07-30T13:10:23.449Z,1.10
2022-07-30T13:12:52.862Z,0.82
2022-07-30T13:15:21.460Z,1.30
2022-07-30T13:17:49.188Z,0.57
2022-07-30T13:20:16.809Z,1.02
2022-07-30T13:22:43.871Z,1.00
2022-07-30T13:25:11.295Z,0.90
2022-07-30T13:27:37.938Z,0.77
2022-07-30T13:30:05.937Z,0.85
2022-07-30T13:32:33.397Z,1.10
2022-07-30T13:35:01.754Z,0.70
2022-07-30T13:37:38.249Z,1.42
2022-07-30T13:40:06.833Z,1.10
2022-07-30T13:42:33.743Z,1.10
2022-07-30T13:45:00.396Z,0.98
2022-07-30T13:47:27.008Z,0.90
2022-07-30T13:49:54.091Z,1.23
2022-07-30T13:52:20.899Z,1.08
2022-07-30T13:54:48.146Z,1.00
2022-07-30T13:57:14.782Z,0.90
2022-07-30T13:59:41.464Z,0.93
2022-07-30T14:02:08.477Z,1.05
2022-07-30T14:04:35.208Z,0.75
2022-07-30T14:07:02.410Z,0.70
2022-07-30T14:09:29.318Z,0.98
2022-07-30T14:11:56.315Z,1.10
2022-07-30T14:14:23.120Z,0.80
2022-07-30T14:16:53.763Z,1.25
2022-07-30T14:19:23.458Z,0.90
2022-07-30T14:21:52.923Z,0.93
2022-07-30T14:24:20.765Z,0.95
2022-07-30T14:26:48.209Z,0.88
2022-07-30T14:29:15.088Z,0.82
2022-07-30T14:31:41.787Z,1.05
2022-07-30T14:34:08.945Z,1.10
2022-07-30T14:36:37.236Z,0.90
2022-07-30T14:39:04.765Z,1.08
2022-07-30T14:41:32.258Z,1.08
2022-07-30T14:43:58.869Z,1.10
2022-07-30T14:46:25.520Z,1.08
2022-07-30T14:48:52.419Z,0.90
2022-07-30T14:51:24.341Z,1.00
2022-07-30T14:53:53.075Z,0.70
2022-07-30T14:56:21.284Z,0.88
2022-07-30T14:58:47.892Z,0.80
2022-07-30T15:01:16.346Z,1.00
2022-07-30T15:03:45.032Z,0.93
2022-07-30T15:06:12.915Z,0.90
2022-07-30T15:08:39.621Z,0.70
2022-07-30T15:11:07.935Z,0.95
2022-07-30T15:13:35.776Z,0.98
2022-07-30T15:16:03.243Z,0.98
2022-07-30T15:18:29.911Z,0.68
2022-07-30T15:20:56.572Z,0.75
2022-07-30T15:23:23.312Z,1.00
2022-07-30T15:25:50.107Z,1.13
2022-07-30T15:28:16.920Z,0.70
2022-07-30T15:30:43.616Z,1.33
2022-07-30T15:33:10.612Z,0.80
2022-07-30T15:35:37.585Z,0.57
2022-07-30T15:38:04.253Z,1.00
2022-07-30T15:40:30.910Z,0.73
2022-07-30T15:42:57.686Z,1.10
2022-07-30T15:45:24.958Z,0.73
2022-07-30T15:47:51.721Z,0.90
2022-07-30T15:50:18.429Z,0.80
2022-07-30T15:52:45.200Z,0.88
2022-07-30T15:55:12.250Z,0.88
2022-07-30T15:57:39.073Z,0.80
2022-07-30T16:00:08.393Z,0.88
2022-07-30T16:02:41.867Z,0.40
2022-07-30T16:05:13.700Z,0.75
2022-07-30T16:07:41.486Z,0.93
2022-07-30T16:10:09.375Z,0.63
2022-07-30T16:12:36.000Z,0.93
2022-07-30T16:15:02.583Z,0.82
2022-07-30T16:17:29.343Z,1.02
2022-07-30T16:19:55.993Z,0.93
2022-07-30T16:22:23.922Z,0.75
2022-07-30T16:24:51.069Z,1.02
2022-07-30T16:27:18.112Z,1.38
2022-07-30T16:29:44.790Z,0.98
2022-07-30T16:32:11.468Z,0.90
2022-07-30T16:34:38.153Z,1.15
2022-07-30T16:37:04.896Z,0.88
2022-07-30T16:39:31.737Z,1.30
2022-07-30T16:41:58.463Z,0.90
2022-07-30T16:44:26.929Z,0.70
2022-07-30T16:46:53.700Z,0.93
2022-07-30T16:49:20.560Z,1.20
2022-07-30T16:51:47.303Z,0.82
2022-07-30T16:54:14.024Z,0.57
2022-07-30T16:56:40.798Z,0.60
2022-07-30T16:59:11.842Z,0.85
2022-07-30T17:01:40.353Z,0.70
2022-07-30T17:04:07.048Z,0.85
2022-07-30T17:06:33.863Z,0.55
2022-07-30T17:09:00.496Z,0.60
2022-07-30T17:11:47.638Z,0.80
2022-07-30T17:14:14.510Z,0.45
2022-07-30T17:16:41.285Z,0.80
2022-07-30T17:19:09.131Z,0.50
2022-07-30T17:21:37.840Z,0.82
2022-07-30T17:24:10.832Z,0.60
2022-07-30T17:26:42.825Z,0.50
2022-07-30T17:29:14.269Z,0.73
2022-07-30T17:31:44.064Z,0.60
2022-07-30T17:34:13.600Z,0.90
2022-07-30T17:36:52.012Z,0.93
2022-07-30T17:40:04.302Z,1.27
2022-07-30T17:42:09.010Z,0.80
2022-07-30T17:44:35.946Z,0.70
2022-07-30T17:47:03.107Z,1.10
2022-07-30T17:49:30.032Z,1.00
2022-07-30T17:51:56.766Z,0.88
2022-07-30T17:54:23.369Z,0.95
2022-07-30T17:56:50.021Z,0.65
2022-07-30T17:59:16.845Z,0.73
2022-07-30T18:01:43.475Z,0.70
2022-07-30T18:04:10.057Z,0.70
2022-07-30T18:06:36.719Z,1.08
2022-07-30T18:09:04.657Z,0.93
2022-07-30T18:11:31.511Z,0.73
2022-07-30T18:13:58.486Z,0.98
2022-07-30T18:16:25.181Z,0.80
2022-07-30T18:18:51.784Z,0.75
2022-07-30T18:21:18.440Z,0.60
2022-07-30T18:23:45.091Z,0.77
2022-07-30T18:26:11.847Z,0.57
2022-07-30T18:28:38.423Z,0.80
2022-07-30T18:31:05.655Z,0.68
2022-07-30T18:33:32.512Z,0.98
2022-07-30T18:35:59.225Z,0.90
2022-07-30T18:38:25.946Z,0.93
2022-07-30T18:40:58.940Z,0.95
2022-07-30T18:43:30.781Z,0.80
2022-07-30T18:45:58.330Z,0.90
2022-07-30T18:48:25.510Z,0.95
2022-07-30T18:50:52.937Z,0.75
2022-07-30T18:53:19.851Z,0.65
2022-07-30T18:55:46.600Z,1.00
2022-07-30T18:58:13.232Z,0.90
2022-07-30T19:00:42.623Z,0.93
2022-07-30T19:03:17.622Z,0.60
2022-07-30T19:05:45.644Z,0.80
2022-07-30T19:08:12.355Z,0.80
2022-07-30T19:10:39.882Z,0.90
2022-07-30T19:13:06.642Z,0.95
2022-07-30T19:15:33.237Z,0.90
2022-07-30T19:17:59.835Z,0.80
2022-07-30T19:20:26.781Z,0.73
2022-07-30T19:23:01.841Z,0.77
2022-07-30T19:25:30.093Z,0.75
2022-07-30T19:27:56.733Z,0.90
2022-07-30T19:30:23.451Z,1.15
2022-07-30T19:32:50.113Z,0.90
2022-07-30T19:35:17.138Z,1.17
2022-07-30T19:37:43.962Z,1.02
2022-07-30T19:43:02.376Z,1.20
2022-07-30T19:45:47.479Z,1.20
2022-07-30T19:48:29.661Z,1.30
2022-07-30T19:50:59.336Z,0.98
2022-07-30T19:56:15.448Z,0.70
2022-07-30T19:58:42.037Z,1.17
2022-07-30T20:01:09.717Z,1.05
2022-07-30T20:03:37.125Z,0.95
2022-07-30T20:06:05.929Z,1.02
2022-07-30T20:08:36.737Z,0.82
2022-07-30T20:11:07.199Z,0.90
2022-07-30T20:13:45.354Z,1.23
2022-07-30T20:16:15.567Z,0.98
2022-07-30T20:18:43.532Z,0.98
2022-07-30T20:21:14.878Z,1.05
2022-07-30T20:23:42.786Z,1.00
2022-07-30T20:26:12.811Z,1.10
2022-07-30T20:28:43.848Z,0.90
2022-07-30T20:31:12.855Z,0.90
2022-07-30T20:33:40.025Z,1.30
2022-07-30T20:36:09.601Z,0.93
2022-07-30T20:38:39.000Z,0.73
2022-07-30T20:41:09.895Z,1.10
2022-07-30T20:43:52.148Z,1.17
2022-07-30T20:46:23.413Z,0.90
2022-07-30T20:48:51.528Z,0.77
2022-07-30T20:51:18.339Z,0.80
2022-07-30T20:53:45.746Z,1.13
2022-07-30T20:56:14.885Z,0.95
2022-07-30T20:58:41.843Z,1.00
2022-07-30T21:01:15.309Z,0.98
2022-07-30T21:03:43.379Z,1.00
2022-07-30T21:06:14.458Z,1.08
2022-07-30T21:08:41.049Z,0.85
2022-07-30T21:11:07.747Z,0.98
2022-07-30T21:13:36.764Z,1.25
2022-07-30T21:16:03.947Z,1.30
2022-07-30T21:18:42.811Z,1.08
2022-07-30T21:21:16.364Z,1.15
2022-07-30T21:23:44.389Z,1.10
2022-07-30T21:26:13.683Z,0.80
2022-07-30T21:28:40.753Z,1.00
2022-07-30T21:31:08.180Z,0.90
2022-07-30T21:33:36.479Z,1.00
2022-07-30T21:36:04.549Z,0.90
2022-07-30T21:38:31.869Z,1.10
2022-07-30T21:40:58.531Z,0.98
2022-07-30T21:43:29.477Z,1.20
2022-07-30T21:45:58.085Z,1.25
2022-07-30T21:48:25.985Z,1.20
2022-07-30T21:50:54.433Z,0.95
2022-07-30T21:53:29.598Z,1.10
2022-07-30T21:56:08.497Z,1.15
2022-07-30T21:58:35.135Z,1.08
2022-07-30T22:01:18.146Z,0.90
2022-07-30T22:04:04.111Z,0.90
2022-07-30T22:06:39.264Z,1.05
2022-07-30T22:09:19.828Z,0.90
2022-07-30T22:11:56.020Z,1.10
2022-07-30T22:14:23.258Z,0.90
2022-07-30T22:16:52.480Z,0.85
2022-07-30T22:19:21.581Z,1.08
2022-07-30T22:21:48.939Z,1.17
2022-07-30T22:24:29.617Z,1.00
2022-07-30T22:27:01.477Z,1.23
2022-07-30T22:29:38.077Z,0.90
2022-07-30T22:32:07.808Z,0.90
2022-07-30T22:34:34.718Z,0.98
2022-07-30T22:37:01.366Z,0.90
2022-07-30T22:39:31.917Z,0.95
2022-07-30T22:42:15.999Z,1.15
2022-07-30T22:44:45.678Z,1.00
2022-07-30T22:47:18.856Z,0.90
2022-07-30T22:49:53.323Z,0.98
2022-07-30T22:52:23.852Z,1.05
2022-07-30T22:54:55.625Z,1.10
2022-07-30T22:57:22.907Z,0.85
2022-07-30T23:00:00.326Z,0.80
2022-07-30T23:02:30.230Z,1.30
2022-07-30T23:04:56.825Z,1.10
2022-07-30T23:07:23.626Z,0.80
2022-07-30T23:10:16.977Z,1.30
2022-07-30T23:12:14.799Z,1.02
2022-07-30T23:12:17.172Z,1.02
2022-07-30T23:12:53.636Z,1.13
2022-07-30T23:15:21.392Z,1.10
2022-07-30T23:17:48.285Z,0.90
2022-07-30T23:20:17.859Z,0.90
2022-07-30T23:22:44.528Z,1.00
2022-07-30T23:25:12.814Z,1.30
2022-07-30T23:27:40.389Z,1.10
2022-07-30T23:30:08.501Z,1.05
2022-07-30T23:32:35.614Z,1.30
2022-07-30T23:35:02.439Z,1.00
2022-07-30T23:37:29.067Z,1.20
2022-07-30T23:40:15.685Z,0.77
2022-07-30T23:42:42.273Z,0.93
2022-07-30T23:45:09.356Z,1.02
2022-07-30T23:47:57.291Z,1.05
2022-07-30T23:50:25.177Z,0.80
2022-07-30T23:52:51.974Z,1.08
2022-07-30T23:55:18.727Z,1.00
2022-07-30T23:57:45.339Z,0.80
